ENGMENTC

Guest
Details From ENGM - Oslo Gardermoen
To ENTC - Tromso Langnes
Flight Number -
Tags Decoded
Created
Modified
Stats Distance 603 nm / 1,116 km
Max Altitude 0 ft / 0 m
Waypoints 2
Social Downloads 4
Likes 0
Share VATSIM

Download

Looking for another format? Having issues loading an existing format? Contact us
Advertisement - Login to hide

Notes

Decoded

Route

ENGM ENTC

ID Type Via Altitude Latitude Longitude Leg Dist Tot Dist Heading (true) Name
O ENGM APT - 0 ft / 0 m 60.17576˚ 11.10778˚ - 0 nm - -
O ENTC APT - 0 ft / 0 m 69.67250˚ 18.91291˚ 602 nm 602 nm 16° / 23° -

Altitude Profile

Advertisement - Login to hide

Weather


0- 5 10 15 20 25 30 35+ Temperature / ° C

Clouds and Precipitation
Forecast for 2017-12-14 06:00 UTC. Updated an hour ago

Ground ~20,000 ft ~40,000 ft Winds

ENGM

Details ICAO ENGM (OSL)
Name Oslo Gardermoen
Region Norway
Timezone Europe/Oslo (UTC+1.0)
Stats Elevation 681 ft / 208 m (AMSL)
Location 60.194507° 11.098998°
Runways 2
Magnetic Variation 3.385° E

METAR

ENGM 140420Z 03005KT 4800 -SN BR OVC003 M04/M05 Q0981

Decode

TAF

TAF ENGM 132300Z 1400/1424 02005KT 8000 -SN SCT004 OVC012 TEMPO 1400/1418 1200 -SN BR VV004 PROB30 1400/1402 0500 FZDZ FZFG VV001 BECMG 1412/1415 02015KT

Decode

Departure Runways

ID Width Length Bearing (true) Bearing (mag) Surface Threshold Offset Overrun Length
01L 148 ft / 45 m 12,144 ft / 3,702 m 15.89° 12.51° Concrete 0 ft / 0 m 499 ft / 152 m
01R 148 ft / 45 m 10,014 ft / 3,052 m 15.89° 12.51° Concrete 0 ft / 0 m 499 ft / 152 m
19L 148 ft / 45 m 10,014 ft / 3,052 m 195.91° 192.53° Concrete 0 ft / 0 m 466 ft / 142 m
19R 148 ft / 45 m 12,144 ft / 3,702 m 195.91° 192.53° Concrete 0 ft / 0 m 482 ft / 147 m

ENTC

Details ICAO ENTC (TOS)
Name Tromso Langnes
Region Norway
Timezone Europe/Oslo (UTC+1.0)
Stats Elevation 31 ft / 9 m (AMSL)
Location 69.682866° 18.919363°
Runways 1
Magnetic Variation 8.798° E

METAR

ENTC 140350Z /////KT 2000 -SHSN VV005 M00/M01 Q0981 RMK WIND RWT19 19009KT

Decode

TAF

TAF ENTC 132300Z 1400/1424 18008KT 9999 FEW010 SCT020 BKN035 TEMPO 1400/1424 2000 SHSN VV008 TEMPO 1400/1418 FEW015CB

Decode

Destination Runways

ID Width Length Bearing (true) Bearing (mag) Surface Threshold Offset Overrun Length
01 141 ft / 43 m 7,740 ft / 2,359 m 12.19° 3.39° Asphalt 0 ft / 0 m 289 ft / 88 m
19 141 ft / 43 m 7,740 ft / 2,359 m 192.21° 183.41° Asphalt 1,227 ft / 374 m 482 ft / 147 m

Approach Navaids

Runway Type Ident Frequency Range Bearing (true) Bearing (mag) Slope Elevation
01 Localiser TC 110.90 MHz 18 nm / 33 km 12.08° 3.29° - 56 ft / 17 m (AMSL)
01 Glidescope TC 110.90 MHz 10 nm / 19 km 12.20° 3.40° 4.00° 31 ft / 9 m (AMSL)
01 DME TC 110.90 MHz 18 nm / 33 km - - - 56 ft / 17 m (AMSL)
19 Localiser TR 109.90 MHz 18 nm / 33 km 193.28° 184.48° - 36 ft / 11 m (AMSL)
19 Glidescope TR 109.90 MHz 10 nm / 19 km 192.20° 183.40° 4.00° 31 ft / 9 m (AMSL)
19 DME TR 109.90 MHz 18 nm / 33 km - - - 36 ft / 11 m (AMSL)

Popular Alternatives